Toowoomba, Queensland

10:53 AM AEST on September 18, 2014 (GMT +1000)
Parkwood Mt Lofty | Change Station
CLOSE
Current Station
Personal Weather Station
Location: Toowoomba, QUEENSLAND
Elevation: 2205 ft
Nearby Weather Stations

Elev 2205 ft 27.55 °S, 151.98 °E | Updated 20 seconds ago

Clear
Clear
66.5 °F
Feels Like 66.5 °F
N
1.9
Wind Variable Wind from SE
Gusts 10.0 mph

Today
High -- | Low -- °F
--% Chance of Precip.
Yesterday
High -- | Low -- °F
Precip. -- in
5:47 AM 5:46 PM
Waning Crescent, 31% visible
Pressure 30.15 in
Visibility -9999.0 miles
Clouds
Dew Point 35 °F
Humidity 31%
Rainfall 0.00 in
Snow Depth Not available.
UV Not available.
Pollen Not available.
Air Quality Not available.
Flu Activity Not available.
METAR YBOK 180001Z 22017KT CAVOK 20/M01 Q1021

More Conditions Fewer Conditions

Pressure 30.15 in
Visibility -9999.0 miles
Clouds
Dew Point 35 °F
Humidity 31%
Rainfall 0.00 in
Snow Depth Not available.
UV Not available.
Pollen Not available.
Air Quality Not available.
Flu Activity Not available.
METAR YBOK 180001Z 22017KT CAVOK 20/M01 Q1021

More Conditions Fewer Conditions

10-Day Weather Forecast

Almanac

Astronomy

Sep. 18, 2014 Rise Set
Actual Time 5:47 AM AEST 5:46 PM AEST
Civil Twilight 5:23 AM AEST 6:09 PM AEST
Nautical Twilight 4:56 AM AEST 6:36 PM AEST
Astronomical Twilight 4:29 AM AEST 7:04 PM AEST
Moon 1:36 AM AEST 12:41 PM AEST
Length of Visible Light 12h 45m
Length of Day
11h 59m
Tomorrow will be 1m 37s longer.
Waning Crescent, 31% of the Moon is Illuminated
Sep 17
Waning Crescent
Sep 24
New
Oct 1
First Quarter
Oct 8
Full
Oct 15
Last Quarter

Yesterday's Extremes

Country Highs Country Lows

Community

WunderPhotos

Upload Photos

1,754,224 photos uploaded!

Nearby

Snow Depth

Not available.

Earthquake Activity

City Distance Mag. Time & Date
No recent earthquake activity has been reported nearby.
Minimum magnitude displayed is 2.5.

Coastal Water Temperatures

Place Temperature
No Stations Reporting

Nearby Weather Stations